Time;durP1;ratioP1;P1;durP2;ratioP2;P2;SDS_P1;SDS_P2;PMS_P1;PMS_P2;Temp;Humidity;BMP_temperature;BMP_pressure;BME280_temperature;BME280_humidity;BME280_pressure;Samples;Min_cycle;Max_cycle;Signal;HPM_P1;HPM_P2
2023/11/12 00:00:41;;;;;;;0.87;0.63;;;21.10;57.90;;;;;;5029917;28;20506;-72
2023/11/12 00:03:07;;;;;;;1.00;0.60;;;21.00;57.80;;;;;;5029738;28;20533;-71
2023/11/12 00:05:33;;;;;;;1.00;0.73;;;21.10;57.90;;;;;;5029790;28;20202;-70
2023/11/12 00:07:58;;;;;;;0.90;0.70;;;21.10;57.90;;;;;;5029845;28;20588;-71
2023/11/12 00:10:24;;;;;;;1.03;0.80;;;21.00;57.80;;;;;;5029730;28;20179;-70
2023/11/12 00:12:50;;;;;;;1.40;0.70;;;21.00;57.90;;;;;;5030667;28;20266;-70
2023/11/12 00:15:16;;;;;;;1.00;0.73;;;21.00;57.90;;;;;;5033183;28;20974;-70
2023/11/12 00:17:42;;;;;;;0.80;0.60;;;21.10;57.90;;;;;;5031636;28;20282;-70
2023/11/12 00:20:12;;;;;;;1.00;0.70;;;21.00;57.90;;;;;;5033333;28;20180;-70
2023/11/12 00:22:39;;;;;;;0.80;0.60;;;21.10;57.90;;;;;;5033258;28;20504;-70
2023/11/12 00:25:05;;;;;;;1.10;0.73;;;21.00;57.90;;;;;;5033134;28;20826;-70
2023/11/12 00:27:30;;;;;;;1.00;0.70;;;21.00;57.90;;;;;;5032863;28;20477;-70
2023/11/12 00:29:56;;;;;;;0.80;0.60;;;21.00;57.90;;;;;;5033039;28;20174;-70
2023/11/12 00:32:23;;;;;;;1.00;0.70;;;21.00;57.80;;;;;;5032869;28;20186;-71
2023/11/12 00:34:48;;;;;;;1.00;0.80;;;21.00;57.90;;;;;;5033206;28;20535;-70
2023/11/12 00:37:14;;;;;;;1.10;0.97;;;21.00;57.90;;;;;;5032777;28;20434;-71
2023/11/12 00:39:40;;;;;;;1.03;0.70;;;21.00;57.90;;;;;;5032765;28;20221;-71
2023/11/12 00:42:06;;;;;;;0.80;0.60;;;21.00;57.90;;;;;;5032584;28;20477;-71
2023/11/12 00:44:31;;;;;;;1.00;0.70;;;21.00;57.90;;;;;;5031224;28;20179;-70
2023/11/12 00:46:57;;;;;;;1.00;0.80;;;21.00;57.90;;;;;;5032564;28;20430;-71
2023/11/12 00:49:23;;;;;;;1.07;0.67;;;21.00;57.90;;;;;;5032570;28;20168;-70
2023/11/12 00:51:48;;;;;;;0.80;0.63;;;21.00;57.90;;;;;;5032583;28;20605;-70
2023/11/12 00:54:14;;;;;;;0.80;0.70;;;21.00;57.90;;;;;;5032529;28;20187;-70
2023/11/12 00:56:39;;;;;;;0.90;0.70;;;21.00;57.90;;;;;;5032478;28;20218;-70
2023/11/12 00:59:05;;;;;;;1.07;0.77;;;21.00;57.90;;;;;;5032612;28;20268;-71
2023/11/12 01:01:32;;;;;;;0.97;0.67;;;21.00;57.90;;;;;;5032329;28;20787;-70
2023/11/12 01:03:57;;;;;;;0.90;0.70;;;21.00;57.90;;;;;;5032415;28;20183;-70
2023/11/12 01:06:23;;;;;;;0.90;0.63;;;21.00;57.90;;;;;;5032228;28;20430;-71
2023/11/12 01:08:49;;;;;;;0.90;0.70;;;21.00;57.90;;;;;;5032210;28;20183;-70
2023/11/12 01:11:15;;;;;;;1.00;0.90;;;21.00;57.90;;;;;;5032288;28;20175;-71
2023/11/12 01:13:41;;;;;;;1.33;0.87;;;21.00;57.90;;;;;;5031943;28;20295;-71
2023/11/12 01:16:07;;;;;;;1.00;0.70;;;21.00;57.90;;;;;;5032161;28;20525;-70
2023/11/12 01:18:35;;;;;;;1.00;0.80;;;21.00;57.90;;;;;;5032181;28;20628;-70
2023/11/12 01:21:03;;;;;;;0.80;0.67;;;21.00;57.80;;;;;;5032090;28;20854;-69
2023/11/12 01:23:28;;;;;;;1.10;0.77;;;21.00;57.80;;;;;;5031810;28;20796;-71
2023/11/12 01:25:54;;;;;;;1.00;0.67;;;21.00;57.80;;;;;;5031189;28;20414;-70
2023/11/12 01:28:20;;;;;;;0.90;0.60;;;21.00;57.90;;;;;;5032329;28;20251;-71
2023/11/12 01:30:46;;;;;;;0.90;0.70;;;21.00;57.90;;;;;;5031789;28;20171;-69
2023/11/12 01:33:11;;;;;;;1.03;0.70;;;21.00;57.80;;;;;;5031851;28;20905;-71
2023/11/12 01:35:37;;;;;;;0.80;0.60;;;21.00;57.80;;;;;;5031719;28;20265;-71
2023/11/12 01:38:03;;;;;;;1.07;0.70;;;21.00;57.80;;;;;;5031851;28;20180;-70
2023/11/12 01:40:30;;;;;;;1.00;0.60;;;21.00;57.90;;;;;;5031826;28;20728;-71
2023/11/12 01:42:56;;;;;;;1.00;0.70;;;21.00;57.80;;;;;;5031442;28;20199;-70
2023/11/12 01:45:22;;;;;;;1.10;0.80;;;21.00;57.80;;;;;;5031555;28;20832;-71
2023/11/12 01:47:47;;;;;;;1.00;0.70;;;21.00;57.90;;;;;;5031475;28;20541;-70
2023/11/12 01:50:13;;;;;;;0.97;0.70;;;21.00;57.80;;;;;;5031377;28;20411;-70
2023/11/12 01:52:41;;;;;;;1.00;0.70;;;21.00;57.80;;;;;;5031596;28;20175;-69
2023/11/12 01:55:09;;;;;;;0.80;0.60;;;21.00;57.90;;;;;;5031515;28;20190;-70
2023/11/12 01:57:37;;;;;;;0.90;0.70;;;21.00;57.80;;;;;;5031412;28;20925;-70
2023/11/12 02:00:10;;;;;;;0.80;0.60;;;21.00;57.80;;;;;;5031314;28;20427;-71
2023/11/12 02:02:39;;;;;;;1.00;0.70;;;21.00;57.80;;;;;;5031164;28;20446;-71
2023/11/12 02:05:06;;;;;;;1.00;0.77;;;21.00;57.80;;;;;;5031139;28;20406;-70
2023/11/12 02:07:33;;;;;;;0.90;0.70;;;21.00;57.90;;;;;;5031326;28;20410;-70
2023/11/12 02:10:08;;;;;;;0.90;0.70;;;21.00;57.90;;;;;;5031574;28;20469;-70
2023/11/12 02:12:39;;;;;;;0.80;0.60;;;21.00;57.90;;;;;;5031651;28;20764;-70
2023/11/12 02:15:06;;;;;;;0.93;0.70;;;21.00;57.90;;;;;;5031858;28;20865;-71
2023/11/12 02:17:32;;;;;;;1.00;0.70;;;21.00;57.90;;;;;;5031425;28;20463;-71
2023/11/12 02:20:08;;;;;;;1.00;0.70;;;21.00;57.90;;;;;;5031604;28;20402;-70
2023/11/12 02:22:34;;;;;;;0.80;0.60;;;21.00;57.90;;;;;;5031470;28;20450;-70
2023/11/12 02:25:04;;;;;;;1.10;0.80;;;21.00;57.90;;;;;;5029561;28;20417;-70
2023/11/12 02:27:31;;;;;;;0.90;0.70;;;21.00;57.90;;;;;;5030819;28;20500;-71
2023/11/12 02:29:57;;;;;;;0.90;0.80;;;21.00;57.90;;;;;;5030737;28;20414;-70
2023/11/12 02:32:30;;;;;;;0.90;0.70;;;20.90;57.80;;;;;;5030738;28;20639;-70
2023/11/12 02:34:56;;;;;;;1.10;0.70;;;21.00;57.90;;;;;;5030841;28;20170;-71
2023/11/12 02:37:23;;;;;;;0.90;0.70;;;21.00;57.90;;;;;;5030626;28;20426;-71
2023/11/12 02:39:49;;;;;;;0.80;0.60;;;21.00;57.90;;;;;;5030887;28;20601;-70
2023/11/12 02:42:16;;;;;;;1.00;0.80;;;21.00;57.90;;;;;;5029095;28;20501;-71
2023/11/12 02:44:45;;;;;;;0.90;0.67;;;20.90;57.80;;;;;;5030763;28;20171;-70
2023/11/12 02:47:11;;;;;;;1.00;0.70;;;21.00;57.90;;;;;;5031719;28;20491;-70
2023/11/12 02:50:07;;;;;;;1.00;0.70;;;20.90;57.80;;;;;;5031829;28;20414;-70
2023/11/12 02:52:33;;;;;;;0.80;0.70;;;20.90;57.80;;;;;;5031867;28;20162;-71
2023/11/12 02:54:59;;;;;;;1.00;0.70;;;20.90;57.80;;;;;;5031956;28;20437;-70
2023/11/12 02:57:26;;;;;;;1.00;0.80;;;20.90;57.80;;;;;;5031460;28;20431;-71
2023/11/12 02:59:53;;;;;;;0.93;0.73;;;20.90;57.80;;;;;;5031435;28;20413;-70
2023/11/12 03:02:19;;;;;;;0.90;0.70;;;20.90;57.80;;;;;;5031462;28;20544;-70
2023/11/12 03:04:46;;;;;;;0.90;0.67;;;20.90;57.80;;;;;;5031619;28;20807;-71
2023/11/12 03:07:11;;;;;;;0.80;0.63;;;21.00;57.90;;;;;;5031236;28;20432;-70
2023/11/12 03:09:38;;;;;;;1.03;0.70;;;21.00;57.90;;;;;;5031259;28;20414;-70
2023/11/12 03:12:04;;;;;;;0.90;0.70;;;20.90;57.80;;;;;;5031202;28;20186;-70
2023/11/12 03:14:31;;;;;;;1.30;0.80;;;20.90;57.80;;;;;;5031249;28;20483;-71
2023/11/12 03:16:56;;;;;;;0.90;0.60;;;21.00;57.90;;;;;;5031002;28;20588;-70
2023/11/12 03:19:23;;;;;;;0.90;0.67;;;20.90;57.80;;;;;;5031026;28;20864;-70
2023/11/12 03:21:58;;;;;;;1.00;0.80;;;21.00;57.90;;;;;;5030902;28;20286;-70
2023/11/12 03:24:23;;;;;;;1.00;0.60;;;20.90;57.80;;;;;;5031282;28;20452;-71
2023/11/12 03:26:55;;;;;;;0.90;0.70;;;21.00;57.90;;;;;;5030775;28;20430;-70
2023/11/12 03:29:23;;;;;;;0.90;0.70;;;21.00;57.90;;;;;;5030833;28;20168;-69
2023/11/12 03:31:50;;;;;;;0.87;0.70;;;21.00;57.90;;;;;;5030136;28;20407;-68
2023/11/12 03:34:16;;;;;;;0.90;0.60;;;21.00;57.80;;;;;;5029976;28;20418;-69
2023/11/12 03:36:41;;;;;;;0.97;0.73;;;21.00;57.80;;;;;;5029956;28;20480;-71
2023/11/12 03:39:08;;;;;;;1.57;0.70;;;20.90;57.70;;;;;;5030047;28;20168;-70
2023/11/12 03:41:34;;;;;;;0.90;0.70;;;20.90;57.80;;;;;;5029834;28;20200;-70
2023/11/12 03:44:00;;;;;;;0.93;0.77;;;21.00;58.40;;;;;;5029818;28;20414;-71
2023/11/12 03:46:25;;;;;;;1.13;0.80;;;20.90;57.70;;;;;;5029934;28;20203;-70
2023/11/12 03:48:51;;;;;;;0.87;0.60;;;20.90;57.70;;;;;;5032908;28;20188;-70
2023/11/12 03:51:16;;;;;;;0.90;0.70;;;21.00;57.80;;;;;;5033559;28;20252;-71
2023/11/12 03:53:42;;;;;;;1.20;0.63;;;21.00;57.80;;;;;;5033608;28;20172;-70
2023/11/12 03:56:08;;;;;;;0.80;0.70;;;20.90;57.70;;;;;;5033451;28;20195;-71
2023/11/12 03:58:34;;;;;;;0.90;0.80;;;21.00;57.80;;;;;;5033348;28;20179;-70
2023/11/12 04:01:00;;;;;;;0.90;0.70;;;21.00;58.40;;;;;;5033361;28;20164;-70
2023/11/12 04:03:27;;;;;;;0.97;0.70;;;21.00;57.80;;;;;;5033202;28;20453;-71
2023/11/12 04:05:53;;;;;;;0.90;0.67;;;21.00;57.80;;;;;;5033233;28;20769;-70
2023/11/12 04:08:19;;;;;;;0.90;0.70;;;20.90;57.70;;;;;;5033161;28;20413;-68
2023/11/12 04:10:46;;;;;;;1.30;0.80;;;21.00;57.80;;;;;;5033157;28;20168;-69
2023/11/12 04:13:12;;;;;;;0.80;0.70;;;20.90;57.70;;;;;;5033078;28;20414;-69
2023/11/12 04:15:37;;;;;;;0.80;0.60;;;21.00;57.80;;;;;;5033022;28;20784;-68
2023/11/12 04:18:04;;;;;;;0.80;0.70;;;21.00;57.80;;;;;;5033050;28;20210;-69
2023/11/12 04:20:32;;;;;;;0.97;0.70;;;21.00;57.80;;;;;;5033010;28;20180;-69
2023/11/12 04:22:58;;;;;;;1.30;0.80;;;20.90;57.70;;;;;;5032875;28;20462;-68
2023/11/12 04:25:24;;;;;;;1.10;0.87;;;21.00;57.80;;;;;;5032647;28;20399;-69
2023/11/12 04:27:49;;;;;;;0.90;0.70;;;21.00;57.80;;;;;;5032836;28;20413;-69
2023/11/12 04:30:16;;;;;;;1.47;0.70;;;20.90;57.70;;;;;;5032812;28;20171;-70
2023/11/12 04:32:44;;;;;;;0.80;0.60;;;21.00;57.80;;;;;;5032757;28;20200;-68
2023/11/12 04:35:11;;;;;;;1.10;0.70;;;20.90;57.70;;;;;;5032634;28;20989;-69
2023/11/12 04:37:39;;;;;;;1.03;0.70;;;20.90;57.80;;;;;;5032691;28;20464;-68
2023/11/12 04:40:06;;;;;;;0.90;0.70;;;20.90;57.70;;;;;;5032660;28;20441;-69
2023/11/12 04:42:32;;;;;;;1.00;0.77;;;20.90;57.70;;;;;;5032444;28;20466;-69
2023/11/12 04:44:58;;;;;;;0.87;0.67;;;20.90;57.80;;;;;;5032748;28;20799;-68
2023/11/12 04:47:24;;;;;;;0.83;0.60;;;20.90;57.70;;;;;;5032303;28;20442;-69
2023/11/12 04:49:51;;;;;;;0.80;0.60;;;20.90;57.70;;;;;;5032446;28;20175;-70
2023/11/12 04:52:17;;;;;;;1.00;0.80;;;20.90;57.80;;;;;;5032358;28;20493;-69
2023/11/12 04:54:50;;;;;;;0.90;0.70;;;20.90;57.70;;;;;;5032719;28;20855;-68
2023/11/12 04:57:16;;;;;;;0.83;0.63;;;20.90;57.70;;;;;;5032402;28;20430;-69
2023/11/12 04:59:42;;;;;;;0.90;0.60;;;20.90;57.70;;;;;;5031181;28;20410;-70
2023/11/12 05:02:10;;;;;;;1.00;0.80;;;20.90;57.70;;;;;;5032117;28;20480;-69
2023/11/12 05:04:36;;;;;;;0.97;0.60;;;20.90;57.70;;;;;;5032224;28;20629;-69
2023/11/12 05:07:02;;;;;;;0.90;0.70;;;20.90;57.70;;;;;;5031987;28;20429;-70
2023/11/12 05:09:28;;;;;;;0.90;0.70;;;20.90;57.80;;;;;;5032043;28;20179;-69
2023/11/12 05:11:54;;;;;;;0.97;0.70;;;20.90;57.80;;;;;;5032115;28;20423;-69
2023/11/12 05:14:19;;;;;;;0.80;0.60;;;20.90;57.70;;;;;;5032082;28;20444;-70
2023/11/12 05:16:46;;;;;;;1.00;0.80;;;20.90;57.80;;;;;;5031772;28;20836;-69
2023/11/12 05:19:12;;;;;;;0.80;0.70;;;20.90;57.80;;;;;;5031843;28;20176;-69
2023/11/12 05:21:44;;;;;;;0.90;0.70;;;20.90;57.80;;;;;;5031748;28;20507;-69
2023/11/12 05:24:10;;;;;;;1.07;0.70;;;20.90;57.70;;;;;;5032139;28;20513;-69
2023/11/12 05:26:36;;;;;;;0.90;0.70;;;20.90;57.70;;;;;;5031637;28;20423;-69
2023/11/12 05:29:03;;;;;;;0.80;0.63;;;20.80;57.70;;;;;;5031686;28;20448;-69
2023/11/12 05:31:32;;;;;;;1.00;0.70;;;20.90;57.80;;;;;;5031684;28;20160;-69
2023/11/12 05:33:58;;;;;;;0.80;0.60;;;20.90;57.80;;;;;;5031631;28;20506;-68
2023/11/12 05:36:24;;;;;;;0.90;0.70;;;20.90;57.80;;;;;;5031425;28;20430;-68
2023/11/12 05:38:49;;;;;;;0.93;0.70;;;20.90;57.80;;;;;;5031534;28;20406;-69
2023/11/12 05:41:16;;;;;;;0.90;0.60;;;20.90;57.70;;;;;;5031510;28;20171;-69
2023/11/12 05:43:41;;;;;;;0.93;0.70;;;20.90;57.70;;;;;;5031758;28;20168;-69
2023/11/12 05:46:08;;;;;;;0.93;0.70;;;20.90;57.70;;;;;;5031249;28;20433;-68
2023/11/12 05:48:33;;;;;;;1.00;0.70;;;20.90;57.70;;;;;;5031199;28;20175;-69
2023/11/12 05:51:00;;;;;;;0.90;0.70;;;20.90;57.80;;;;;;5031224;28;20406;-69
2023/11/12 05:53:25;;;;;;;0.87;0.70;;;20.90;57.80;;;;;;5031240;28;20549;-69
2023/11/12 05:55:51;;;;;;;0.90;0.70;;;20.90;57.70;;;;;;5031007;28;20434;-70
2023/11/12 05:58:17;;;;;;;0.90;0.70;;;20.90;57.70;;;;;;5031039;28;20437;-69
2023/11/12 06:00:43;;;;;;;1.00;0.80;;;20.90;57.70;;;;;;5030934;28;20266;-69
2023/11/12 06:03:08;;;;;;;0.90;0.70;;;20.90;57.70;;;;;;5030962;28;20246;-68
2023/11/12 06:05:34;;;;;;;0.80;0.70;;;20.90;57.70;;;;;;5030866;28;20191;-68
2023/11/12 06:08:02;;;;;;;0.90;0.70;;;20.90;57.70;;;;;;5031140;28;20549;-69
2023/11/12 06:10:28;;;;;;;0.87;0.70;;;20.90;57.70;;;;;;5030504;28;20172;-69
2023/11/12 06:12:54;;;;;;;0.80;0.60;;;20.90;57.70;;;;;;5030775;28;20414;-69
2023/11/12 06:15:25;;;;;;;0.90;0.60;;;20.90;57.70;;;;;;5031012;28;20472;-69
2023/11/12 06:17:52;;;;;;;0.90;0.60;;;20.90;57.70;;;;;;5030692;28;20215;-69
2023/11/12 06:20:17;;;;;;;0.80;0.63;;;20.90;57.70;;;;;;5030695;28;20414;-69
2023/11/12 06:22:43;;;;;;;0.80;0.60;;;20.90;57.70;;;;;;5030484;28;20508;-69
2023/11/12 06:25:12;;;;;;;1.13;0.80;;;20.90;57.70;;;;;;5030540;28;20171;-69
2023/11/12 06:27:39;;;;;;;2.80;0.77;;;20.90;57.70;;;;;;5030598;28;20171;-69
2023/11/12 06:30:05;;;;;;;0.80;0.60;;;20.90;57.70;;;;;;5030471;28;20518;-70
2023/11/12 06:32:31;;;;;;;0.90;0.70;;;20.90;57.70;;;;;;5029271;28;20427;-69
2023/11/12 06:34:56;;;;;;;1.30;0.70;;;20.90;57.70;;;;;;5030643;28;20501;-69
2023/11/12 06:37:22;;;;;;;0.90;0.60;;;20.90;57.70;;;;;;5030368;28;20204;-69
2023/11/12 06:39:48;;;;;;;0.90;0.63;;;20.90;57.70;;;;;;5030433;28;20176;-68
2023/11/12 06:42:14;;;;;;;0.80;0.60;;;20.90;57.70;;;;;;5030342;28;20286;-69
2023/11/12 06:44:40;;;;;;;1.10;0.80;;;20.90;57.70;;;;;;5030405;28;20179;-69
2023/11/12 06:47:06;;;;;;;0.90;0.70;;;20.90;57.70;;;;;;5030320;28;20430;-69
2023/11/12 06:49:32;;;;;;;0.90;0.70;;;20.90;57.70;;;;;;5030377;28;20178;-70
2023/11/12 06:51:58;;;;;;;0.90;0.60;;;20.90;57.70;;;;;;5029028;28;20180;-69
2023/11/12 06:54:24;;;;;;;1.10;0.80;;;20.90;57.70;;;;;;5030641;28;20426;-70
2023/11/12 06:56:50;;;;;;;0.80;0.60;;;20.90;57.70;;;;;;5030342;28;20810;-69
2023/11/12 06:59:16;;;;;;;0.90;0.70;;;20.90;57.80;;;;;;5029059;28;20430;-69
2023/11/12 07:01:42;;;;;;;0.90;0.70;;;20.90;57.80;;;;;;5030133;28;20450;-69
2023/11/12 07:04:10;;;;;;;0.80;0.60;;;20.90;57.80;;;;;;5030208;28;20659;-68
2023/11/12 07:06:35;;;;;;;1.00;0.70;;;20.90;57.80;;;;;;5030067;28;20210;-69
2023/11/12 07:09:01;;;;;;;0.80;0.60;;;20.90;57.80;;;;;;5030232;28;20414;-69
2023/11/12 07:11:27;;;;;;;0.80;0.60;;;20.90;57.80;;;;;;5030175;28;20179;-69
2023/11/12 07:13:52;;;;;;;0.80;0.60;;;21.00;57.90;;;;;;5030196;28;20180;-69
2023/11/12 07:16:18;;;;;;;0.90;0.70;;;21.00;57.90;;;;;;5029995;28;20188;-69
2023/11/12 07:18:44;;;;;;;0.90;0.60;;;21.00;57.90;;;;;;5028545;28;20195;-70
2023/11/12 07:21:11;;;;;;;0.90;0.63;;;21.00;57.90;;;;;;5029975;28;20176;-70
2023/11/12 07:23:37;;;;;;;1.20;0.70;;;21.00;57.90;;;;;;5032519;28;20464;-70
2023/11/12 07:26:03;;;;;;;0.90;0.70;;;21.00;57.80;;;;;;5033903;28;20807;-69
2023/11/12 07:28:29;;;;;;;0.80;0.60;;;21.00;57.80;;;;;;5033924;28;20472;-69
2023/11/12 07:30:56;;;;;;;0.83;0.60;;;21.00;57.90;;;;;;5033970;28;20441;-69
2023/11/12 07:33:21;;;;;;;0.90;0.80;;;21.00;57.80;;;;;;5033993;28;20643;-70
2023/11/12 07:35:49;;;;;;;1.00;0.70;;;21.00;57.80;;;;;;5033881;28;20441;-69
2023/11/12 07:38:15;;;;;;;0.90;0.70;;;21.00;57.80;;;;;;5034098;28;20269;-69
2023/11/12 07:40:43;;;;;;;0.90;0.80;;;21.00;57.80;;;;;;5034157;28;20828;-69
2023/11/12 07:43:09;;;;;;;0.80;0.60;;;21.10;57.80;;;;;;5033782;28;20211;-69
2023/11/12 07:45:34;;;;;;;0.80;0.60;;;21.10;57.90;;;;;;5033615;28;20873;-69
2023/11/12 07:48:00;;;;;;;0.80;0.63;;;21.10;57.80;;;;;;5032377;28;20700;-71
2023/11/12 07:50:26;;;;;;;1.00;0.70;;;21.10;57.80;;;;;;5033643;28;20241;-69
2023/11/12 07:52:51;;;;;;;0.90;0.70;;;21.10;57.80;;;;;;5033666;28;20205;-70
2023/11/12 07:55:17;;;;;;;0.90;0.60;;;21.10;57.80;;;;;;5033511;28;20287;-70
2023/11/12 07:57:43;;;;;;;1.00;0.60;;;21.10;57.80;;;;;;5033602;28;20662;-69
2023/11/12 08:00:13;;;;;;;0.80;0.60;;;21.10;57.80;;;;;;5033830;28;20468;-69
2023/11/12 08:02:39;;;;;;;1.00;0.70;;;21.10;57.80;;;;;;5033394;28;20644;-69
2023/11/12 08:05:08;;;;;;;0.80;0.60;;;21.10;57.80;;;;;;5033450;28;20418;-69
2023/11/12 08:07:35;;;;;;;1.00;0.70;;;21.10;57.80;;;;;;5033361;28;20410;-69
2023/11/12 08:10:04;;;;;;;0.90;0.60;;;21.10;57.80;;;;;;5033308;28;20468;-69
2023/11/12 08:12:30;;;;;;;0.90;0.60;;;21.10;57.70;;;;;;5033475;28;21000;-70
2023/11/12 08:14:56;;;;;;;0.80;0.60;;;21.10;57.80;;;;;;5033220;28;20414;-69
2023/11/12 08:17:21;;;;;;;0.90;0.60;;;21.10;57.70;;;;;;5033050;28;20965;-69
2023/11/12 08:19:47;;;;;;;0.90;0.70;;;21.10;57.80;;;;;;5033203;28;20624;-70
2023/11/12 08:22:13;;;;;;;0.80;0.60;;;21.10;57.70;;;;;;5032954;28;20264;-69
2023/11/12 08:24:38;;;;;;;0.80;0.70;;;21.10;57.70;;;;;;5033104;28;20186;-69
2023/11/12 08:27:04;;;;;;;0.80;0.60;;;21.10;57.70;;;;;;5032940;28;20184;-69
2023/11/12 08:29:31;;;;;;;1.00;0.70;;;21.10;57.80;;;;;;5033108;28;20230;-70
2023/11/12 08:31:57;;;;;;;1.10;0.70;;;21.10;57.70;;;;;;5033021;28;20259;-70
2023/11/12 08:34:23;;;;;;;1.00;0.63;;;21.10;57.80;;;;;;5032781;28;20418;-69
2023/11/12 08:36:55;;;;;;;0.80;0.60;;;21.10;57.80;;;;;;5032864;28;20488;-69
2023/11/12 08:39:23;;;;;;;0.83;0.63;;;21.10;57.80;;;;;;5032839;28;20581;-69
2023/11/12 08:41:50;;;;;;;0.80;0.60;;;21.10;57.70;;;;;;5032930;28;20489;-69
2023/11/12 08:44:16;;;;;;;0.90;0.70;;;21.10;57.80;;;;;;5032963;28;20418;-69
2023/11/12 08:46:42;;;;;;;0.80;0.60;;;21.10;58.30;;;;;;5032706;28;20434;-70
2023/11/12 08:49:08;;;;;;;0.80;0.57;;;21.10;57.80;;;;;;5032663;28;20188;-69
2023/11/12 08:51:35;;;;;;;0.80;0.60;;;21.10;57.80;;;;;;5032673;28;20457;-70
2023/11/12 08:54:01;;;;;;;0.90;0.70;;;21.10;57.80;;;;;;5032586;28;20468;-68
2023/11/12 08:56:29;;;;;;;0.90;0.70;;;21.10;57.80;;;;;;5032541;28;20529;-69
2023/11/12 08:58:58;;;;;;;0.90;0.70;;;21.10;57.80;;;;;;5032356;28;20410;-70
2023/11/12 09:01:24;;;;;;;0.90;0.70;;;21.10;57.80;;;;;;5032443;28;20838;-69
2023/11/12 09:03:50;;;;;;;0.80;0.60;;;21.10;57.80;;;;;;5032519;28;20421;-69
2023/11/12 09:06:16;;;;;;;0.87;0.67;;;21.10;57.80;;;;;;5032280;28;20437;-69
2023/11/12 09:08:42;;;;;;;0.80;0.70;;;21.10;57.80;;;;;;5032900;28;20414;-69
2023/11/12 09:11:09;;;;;;;0.80;0.60;;;21.10;57.80;;;;;;5032283;28;20202;-69
2023/11/12 09:13:35;;;;;;;0.90;0.60;;;21.10;57.80;;;;;;5032178;28;20259;-71
2023/11/12 09:16:01;;;;;;;0.90;0.60;;;21.10;57.80;;;;;;5030948;28;20438;-70
2023/11/12 09:18:26;;;;;;;0.90;0.60;;;21.10;57.80;;;;;;5032239;28;20333;-70
2023/11/12 09:20:52;;;;;;;0.90;0.70;;;21.10;57.80;;;;;;5030605;28;20195;-70
2023/11/12 09:23:18;;;;;;;0.90;0.70;;;21.10;57.80;;;;;;5032005;28;20207;-70
2023/11/12 09:25:44;;;;;;;0.80;0.70;;;21.10;57.80;;;;;;5031865;28;20736;-69
2023/11/12 09:28:11;;;;;;;1.00;0.70;;;21.10;57.80;;;;;;5032271;28;20180;-70
2023/11/12 09:30:37;;;;;;;1.00;0.70;;;21.10;57.80;;;;;;5031956;28;20407;-69
2023/11/12 09:33:04;;;;;;;0.90;0.67;;;21.10;57.80;;;;;;5031862;28;20422;-70
2023/11/12 09:35:30;;;;;;;0.90;0.70;;;21.10;57.80;;;;;;5031774;28;20220;-69
2023/11/12 09:37:56;;;;;;;1.00;0.67;;;21.10;57.80;;;;;;5030223;28;20934;-69
2023/11/12 09:40:22;;;;;;;1.27;0.60;;;21.10;57.80;;;;;;5031700;28;20211;-69
2023/11/12 09:42:53;;;;;;;0.80;0.63;;;21.10;57.80;;;;;;5031622;28;20675;-69
2023/11/12 09:45:19;;;;;;;0.93;0.70;;;21.10;57.80;;;;;;5030672;28;20411;-70
2023/11/12 09:47:54;;;;;;;0.90;0.70;;;21.10;57.80;;;;;;5031724;28;20947;-69
2023/11/12 09:50:27;;;;;;;1.47;0.73;;;21.10;57.80;;;;;;5031486;28;20402;-70
2023/11/12 09:52:54;;;;;;;0.90;0.70;;;21.10;57.80;;;;;;5031443;28;20989;-69
2023/11/12 09:55:21;;;;;;;0.80;0.60;;;21.10;57.80;;;;;;5031153;28;20418;-69
2023/11/12 09:57:48;;;;;;;0.80;0.73;;;21.10;57.80;;;;;;5031294;28;20492;-68
2023/11/12 10:00:16;;;;;;;0.80;0.60;;;21.10;57.80;;;;;;5031131;28;20415;-69
2023/11/12 10:02:44;;;;;;;0.97;0.70;;;21.10;57.80;;;;;;5031179;28;20556;-69
2023/11/12 10:05:10;;;;;;;1.00;0.63;;;21.10;57.80;;;;;;5030993;28;20410;-69
2023/11/12 10:07:42;;;;;;;0.80;0.70;;;21.10;57.80;;;;;;5030983;28;20940;-69
2023/11/12 10:10:34;;;;;;;0.80;0.60;;;21.10;57.80;;;;;;5031423;28;20425;-69
2023/11/12 10:13:04;;;;;;;0.80;0.60;;;21.10;57.80;;;;;;5029834;28;20532;-69
2023/11/12 10:15:33;;;;;;;0.90;0.70;;;21.10;57.80;;;;;;5031090;28;20449;-69
2023/11/12 10:18:00;;;;;;;0.80;0.60;;;21.10;57.80;;;;;;5030776;28;20442;-68
2023/11/12 10:20:27;;;;;;;0.90;0.70;;;21.10;57.80;;;;;;5030861;28;20430;-68
2023/11/12 10:22:53;;;;;;;1.00;0.70;;;21.10;58.40;;;;;;5030781;28;20875;-69
2023/11/12 10:25:49;;;;;;;1.03;0.73;;;21.10;57.80;;;;;;5029288;28;20505;-68
2023/11/12 10:28:15;;;;;;;1.00;0.70;;;21.10;57.80;;;;;;5030153;28;20433;-68
2023/11/12 10:30:42;;;;;;;0.80;0.63;;;21.10;57.80;;;;;;5030956;28;20762;-68
2023/11/12 10:33:15;;;;;;;0.90;0.63;;;21.10;57.80;;;;;;5030692;28;20501;-67
2023/11/12 10:35:42;;;;;;;1.00;0.70;;;21.10;57.90;;;;;;5030554;28;20462;-68
2023/11/12 10:38:08;;;;;;;0.80;0.60;;;21.10;57.90;;;;;;5030884;28;20846;-69
2023/11/12 10:40:34;;;;;;;0.90;0.70;;;21.10;57.80;;;;;;5030658;28;20426;-69
2023/11/12 10:43:08;;;;;;;0.80;0.60;;;21.10;57.90;;;;;;5030546;28;20453;-70
2023/11/12 10:45:43;;;;;;;0.93;0.70;;;21.10;57.80;;;;;;5030332;28;20434;-70
2023/11/12 10:48:10;;;;;;;0.80;0.60;;;21.10;57.90;;;;;;5030465;28;20394;-69
2023/11/12 10:50:39;;;;;;;1.83;0.70;;;21.10;57.90;;;;;;5030593;28;20425;-69
2023/11/12 10:53:05;;;;;;;0.90;0.60;;;21.10;57.90;;;;;;5030480;28;20438;-70
2023/11/12 10:55:32;;;;;;;0.90;0.70;;;21.10;57.90;;;;;;5030587;28;20441;-69
2023/11/12 10:57:59;;;;;;;0.97;0.70;;;21.10;57.90;;;;;;5030360;28;20411;-69
2023/11/12 11:00:25;;;;;;;0.80;0.60;;;21.10;57.90;;;;;;5030558;28;20427;-69
2023/11/12 11:02:52;;;;;;;1.00;0.70;;;21.10;57.80;;;;;;5030166;28;20454;-69
2023/11/12 11:05:18;;;;;;;0.90;0.60;;;21.10;57.90;;;;;;5030164;28;20418;-69
2023/11/12 11:07:48;;;;;;;0.90;0.67;;;21.10;57.90;;;;;;5030178;28;20422;-70
2023/11/12 11:10:15;;;;;;;0.90;0.60;;;21.10;57.90;;;;;;5030144;28;20226;-69
2023/11/12 11:12:42;;;;;;;0.87;0.60;;;21.10;57.90;;;;;;5030130;28;20773;-70
2023/11/12 11:15:43;;;;;;;0.80;0.60;;;21.10;57.80;;;;;;5030001;28;20472;-70
2023/11/12 11:18:27;;;;;;;0.80;0.60;;;21.10;57.80;;;;;;5030049;28;20437;-69
2023/11/12 11:21:17;;;;;;;0.90;0.60;;;21.10;57.80;;;;;;5030199;28;20975;-69
2023/11/12 11:23:52;;;;;;;0.90;0.70;;;21.10;57.90;;;;;;5030402;28;20604;-69
2023/11/12 11:26:24;;;;;;;0.90;0.70;;;21.10;57.90;;;;;;5029955;28;20445;-70
2023/11/12 11:29:04;;;;;;;0.87;0.60;;;21.10;57.90;;;;;;5030050;28;20414;-69
2023/11/12 11:31:34;;;;;;;0.90;0.70;;;21.10;57.90;;;;;;5029963;28;20441;-69
2023/11/12 11:34:03;;;;;;;0.80;0.60;;;21.10;57.90;;;;;;5030223;28;20773;-68
2023/11/12 11:36:30;;;;;;;1.03;0.80;;;21.10;57.90;;;;;;5029656;28;20430;-69
2023/11/12 11:39:12;;;;;;;0.83;0.60;;;21.10;57.90;;;;;;5030016;28;20417;-68
2023/11/12 11:41:50;;;;;;;1.30;0.80;;;21.10;57.80;;;;;;5029869;28;20437;-68
2023/11/12 11:44:34;;;;;;;0.90;0.70;;;21.10;57.80;;;;;;5029868;28;20410;-69
2023/11/12 11:47:15;;;;;;;0.93;0.73;;;21.10;57.80;;;;;;5029970;28;21357;-69
2023/11/12 11:49:50;;;;;;;0.83;0.70;;;21.10;57.80;;;;;;5029859;28;20880;-68
2023/11/12 11:52:18;;;;;;;0.80;0.60;;;21.00;57.80;;;;;;5029874;28;20451;-69
2023/11/12 11:54:44;;;;;;;0.90;0.67;;;21.10;57.80;;;;;;5029893;28;20422;-69
2023/11/12 11:57:12;;;;;;;1.00;0.80;;;21.00;57.80;;;;;;5029669;28;20438;-69
2023/11/12 11:59:37;;;;;;;0.80;0.60;;;21.10;57.90;;;;;;5029663;28;20797;-69
2023/11/12 12:02:05;;;;;;;0.87;0.60;;;21.00;57.80;;;;;;5029457;28;20458;-67
2023/11/12 12:04:32;;;;;;;0.80;0.60;;;21.10;57.80;;;;;;5029925;28;20865;-69
2023/11/12 12:06:58;;;;;;;1.00;0.80;;;21.00;57.70;;;;;;5029490;28;21017;-68
2023/11/12 12:09:26;;;;;;;0.80;0.60;;;21.10;57.80;;;;;;5031949;28;20420;-69
2023/11/12 12:11:53;;;;;;;1.00;0.67;;;21.00;57.70;;;;;;5033406;28;20472;-69
2023/11/12 12:14:20;;;;;;;1.57;1.00;;;21.10;57.80;;;;;;5033430;28;20418;-69
2023/11/12 12:16:47;;;;;;;0.90;0.70;;;21.00;57.80;;;;;;5033177;28;20460;-69
2023/11/12 12:19:23;;;;;;;0.90;0.60;;;21.10;57.80;;;;;;5033227;28;20411;-68
2023/11/12 12:21:51;;;;;;;0.90;0.60;;;21.10;57.80;;;;;;5032975;28;20453;-69
2023/11/12 12:24:19;;;;;;;0.90;0.70;;;21.10;57.90;;;;;;5033039;28;20814;-68
2023/11/12 12:26:45;;;;;;;1.33;0.80;;;21.10;57.90;;;;;;5033466;28;20426;-69
2023/11/12 12:29:14;;;;;;;1.07;0.70;;;21.00;57.80;;;;;;5033057;28;20932;-69
2023/11/12 12:31:40;;;;;;;1.00;0.80;;;21.10;57.90;;;;;;5031561;28;20186;-70
2023/11/12 12:34:07;;;;;;;1.00;0.70;;;21.10;57.90;;;;;;5033145;28;20419;-69
2023/11/12 12:36:36;;;;;;;0.90;0.60;;;21.10;57.90;;;;;;5032774;28;20462;-69
2023/11/12 12:39:15;;;;;;;0.90;0.70;;;21.10;57.90;;;;;;5032975;28;20404;-69
2023/11/12 12:41:41;;;;;;;0.80;0.60;;;21.10;57.90;;;;;;5032867;28;20805;-69
2023/11/12 12:44:23;;;;;;;0.83;0.63;;;21.10;57.90;;;;;;5032954;28;20413;-69
2023/11/12 12:46:51;;;;;;;0.90;0.70;;;21.10;57.80;;;;;;5032759;28;20191;-69
2023/11/12 12:49:34;;;;;;;0.80;0.60;;;21.10;57.90;;;;;;5032809;28;20403;-69